Time;durP1;ratioP1;P1;durP2;ratioP2;P2;SDS_P1;SDS_P2;PMS_P1;PMS_P2;Temp;Humidity;BMP_temperature;BMP_pressure;BME280_temperature;BME280_humidity;BME280_pressure;Samples;Min_cycle;Max_cycle;Signal;HPM_P1;HPM_P2
2023/09/06 00:01:36;;;;;;;3.27;2.10;;;25.70;95.90;;;;;;5033600;28;20208;-85
2023/09/06 00:04:01;;;;;;;3.93;2.30;;;25.70;96.00;;;;;;5033222;28;20173;-85
2023/09/06 00:06:27;;;;;;;3.90;2.27;;;25.70;95.90;;;;;;5032834;28;20246;-85
2023/09/06 00:09:11;;;;;;;5.17;2.20;;;25.70;95.90;;;;;;5049475;28;20207;-85
2023/09/06 00:11:39;;;;;;;4.53;2.50;;;25.70;95.90;;;;;;5022625;28;20184;-85
2023/09/06 00:14:05;;;;;;;3.10;2.10;;;25.70;95.90;;;;;;5029109;28;20184;-86
2023/09/06 00:16:31;;;;;;;4.23;2.47;;;25.70;95.90;;;;;;5031088;28;20229;-86
2023/09/06 00:18:59;;;;;;;4.10;2.60;;;25.60;96.00;;;;;;5029216;28;20517;-85
2023/09/06 00:21:26;;;;;;;5.13;2.47;;;25.60;95.90;;;;;;5030641;28;20652;-85
2023/09/06 00:23:52;;;;;;;3.57;2.20;;;25.60;96.00;;;;;;5029901;28;20625;-86
2023/09/06 00:26:18;;;;;;;3.47;2.10;;;25.60;95.90;;;;;;5049786;28;20207;-85
2023/09/06 00:28:45;;;;;;;3.30;2.20;;;25.60;96.00;;;;;;5033310;28;20471;-85
2023/09/06 00:31:11;;;;;;;3.87;2.13;;;25.60;95.90;;;;;;5033847;28;20176;-86
2023/09/06 00:33:37;;;;;;;2.77;2.00;;;25.60;95.90;;;;;;5036573;28;20169;-86
2023/09/06 00:36:04;;;;;;;3.73;2.10;;;25.60;96.00;;;;;;5036887;28;20176;-86
2023/09/06 00:38:29;;;;;;;3.73;2.23;;;25.60;96.00;;;;;;5037069;28;20483;-86
2023/09/06 00:40:55;;;;;;;4.97;2.10;;;25.50;96.00;;;;;;5036990;28;20469;-86
2023/09/06 00:43:21;;;;;;;3.63;2.30;;;25.60;96.00;;;;;;5054359;28;20658;-86
2023/09/06 00:45:50;;;;;;;3.23;2.30;;;25.50;96.00;;;;;;5053451;28;20168;-86
2023/09/06 00:48:26;;;;;;;3.73;2.30;;;25.50;96.00;;;;;;5054580;28;20171;-85
2023/09/06 00:50:56;;;;;;;3.07;2.13;;;25.40;96.10;;;;;;5036971;28;20167;-86
2023/09/06 00:53:25;;;;;;;4.03;2.60;;;25.50;96.10;;;;;;5054959;28;20233;-86
2023/09/06 00:55:52;;;;;;;3.90;2.17;;;25.40;96.00;;;;;;5035580;28;20582;-85
2023/09/06 00:58:19;;;;;;;3.77;2.27;;;25.40;96.20;;;;;;5036540;28;20196;-85
2023/09/06 01:00:47;;;;;;;3.93;2.10;;;25.40;96.20;;;;;;5054320;28;20335;-85
2023/09/06 01:03:13;;;;;;;4.67;2.50;;;25.40;96.20;;;;;;5037969;28;20199;-85
2023/09/06 01:05:59;;;;;;;3.80;2.20;;;25.40;96.20;;;;;;5036394;28;20167;-85
2023/09/06 01:08:57;;;;;;;3.43;2.17;;;25.30;96.30;;;;;;5040694;28;20188;-85
2023/09/06 01:11:25;;;;;;;3.83;2.10;;;25.30;96.30;;;;;;5020290;28;20191;-85
2023/09/06 01:13:52;;;;;;;2.97;2.00;;;25.40;96.20;;;;;;5035161;28;20199;-85
2023/09/06 01:16:45;;;;;;;2.10;1.90;;;25.30;96.20;;;;;;5052138;28;20194;-85
2023/09/06 01:19:15;;;;;;;2.90;1.97;;;25.30;96.30;;;;;;5014297;28;20185;-85
2023/09/06 01:22:00;;;;;;;3.53;2.03;;;25.30;96.20;;;;;;5031002;28;20218;-85
2023/09/06 01:24:29;;;;;;;4.07;2.10;;;25.30;96.20;;;;;;5048568;28;20280;-85
2023/09/06 01:26:55;;;;;;;2.40;1.93;;;25.30;96.20;;;;;;5051097;28;20261;-85
2023/09/06 01:29:25;;;;;;;2.40;1.97;;;25.20;96.20;;;;;;5242051;23;20220;-87
2023/09/06 01:31:51;;;;;;;3.40;1.80;;;25.20;96.20;;;;;;5030163;28;20180;-87
2023/09/06 01:34:17;;;;;;;2.97;2.10;;;25.20;96.20;;;;;;5033098;28;20557;-87
2023/09/06 01:36:46;;;;;;;2.17;1.97;;;25.20;96.20;;;;;;5032672;28;20245;-87
2023/09/06 01:39:12;;;;;;;2.00;1.80;;;25.20;96.20;;;;;;5033484;28;20176;-86
2023/09/06 01:41:40;;;;;;;3.63;2.33;;;25.20;96.20;;;;;;5033026;28;20208;-86
2023/09/06 01:44:06;;;;;;;2.30;1.90;;;25.20;96.20;;;;;;5034320;28;20180;-87
2023/09/06 01:46:35;;;;;;;2.77;1.87;;;25.20;96.10;;;;;;5032928;28;20231;-87
2023/09/06 01:49:01;;;;;;;3.83;1.97;;;25.20;96.10;;;;;;5033653;28;20175;-87
2023/09/06 01:51:26;;;;;;;2.60;2.07;;;25.20;96.10;;;;;;5033725;28;20180;-87
2023/09/06 01:53:52;;;;;;;3.63;2.10;;;25.20;96.10;;;;;;5033520;28;20434;-86
2023/09/06 01:56:20;;;;;;;2.33;1.87;;;25.20;96.40;;;;;;5033229;28;20187;-86
2023/09/06 01:58:46;;;;;;;2.50;1.90;;;25.20;96.00;;;;;;5034101;28;20173;-86
2023/09/06 02:01:33;;;;;;;3.23;1.80;;;25.20;96.00;;;;;;5033896;28;20461;-86
2023/09/06 02:03:59;;;;;;;2.10;1.90;;;25.20;96.00;;;;;;5033593;28;20177;-87
2023/09/06 02:06:27;;;;;;;3.10;1.87;;;25.20;96.00;;;;;;5034632;28;20271;-87
2023/09/06 02:08:56;;;;;;;2.07;1.80;;;25.20;95.90;;;;;;5033224;28;20173;-87
2023/09/06 02:11:22;;;;;;;3.57;2.10;;;25.10;95.80;;;;;;5031483;28;20169;-85
2023/09/06 02:13:50;;;;;;;1.90;1.80;;;25.10;95.90;;;;;;5033670;28;20173;-84
2023/09/06 02:16:17;;;;;;;1.87;1.70;;;25.20;95.90;;;;;;5033464;28;20172;-84
2023/09/06 02:18:46;;;;;;;2.50;2.03;;;25.20;95.90;;;;;;5033345;28;20169;-84
2023/09/06 02:21:14;;;;;;;2.40;2.10;;;25.10;95.80;;;;;;5033537;28;20199;-84
2023/09/06 02:23:42;;;;;;;2.20;1.90;;;25.10;95.80;;;;;;5033276;28;20173;-84
2023/09/06 02:26:11;;;;;;;2.17;1.90;;;25.10;95.80;;;;;;5033720;28;20272;-84
2023/09/06 02:28:39;;;;;;;2.10;1.90;;;25.10;95.80;;;;;;5034401;28;20205;-84
2023/09/06 02:31:05;;;;;;;2.90;2.10;;;25.10;95.90;;;;;;5032862;28;20295;-84
2023/09/06 02:33:31;;;;;;;2.33;2.00;;;25.10;95.90;;;;;;5034390;28;20267;-84
2023/09/06 02:35:57;;;;;;;2.03;1.90;;;25.10;95.80;;;;;;5032860;28;20173;-84
2023/09/06 02:38:26;;;;;;;2.00;1.80;;;25.00;95.80;;;;;;5033830;28;20203;-84
2023/09/06 02:40:52;;;;;;;2.40;1.60;;;25.10;95.80;;;;;;5033655;28;20456;-84
2023/09/06 02:43:17;;;;;;;2.40;2.00;;;25.00;95.80;;;;;;5034083;28;20214;-84
2023/09/06 02:45:49;;;;;;;2.00;1.80;;;25.00;95.80;;;;;;5034270;28;20463;-84
2023/09/06 02:48:18;;;;;;;2.10;1.90;;;25.00;95.80;;;;;;5034614;28;20207;-84
2023/09/06 02:50:44;;;;;;;2.00;1.80;;;25.00;95.80;;;;;;5032805;28;20180;-84
2023/09/06 02:53:19;;;;;;;2.63;1.87;;;24.90;95.80;;;;;;5032664;28;20188;-84
2023/09/06 02:55:51;;;;;;;2.73;2.13;;;24.90;95.80;;;;;;5034013;28;20176;-84
2023/09/06 02:58:18;;;;;;;2.37;1.73;;;24.90;95.70;;;;;;5033308;28;20295;-84
2023/09/06 03:00:49;;;;;;;1.97;1.67;;;24.90;95.70;;;;;;5032265;28;20185;-84
2023/09/06 03:03:17;;;;;;;2.17;1.97;;;24.90;95.80;;;;;;5032608;28;20235;-85
2023/09/06 03:05:46;;;;;;;4.27;2.00;;;24.90;95.70;;;;;;5032488;28;20284;-85
2023/09/06 03:08:13;;;;;;;1.60;1.50;;;24.90;95.80;;;;;;5033522;28;20485;-84
2023/09/06 03:10:49;;;;;;;1.80;1.60;;;24.90;95.70;;;;;;5031046;28;20177;-84
2023/09/06 03:13:15;;;;;;;2.47;2.00;;;24.90;95.70;;;;;;5032724;28;20464;-84
2023/09/06 03:15:43;;;;;;;2.90;1.97;;;24.90;95.60;;;;;;5032250;28;20193;-84
2023/09/06 03:18:10;;;;;;;2.23;1.60;;;24.90;95.70;;;;;;5033026;28;20279;-84
2023/09/06 03:20:44;;;;;;;2.80;2.10;;;24.90;95.70;;;;;;5032143;28;20181;-85
2023/09/06 03:23:23;;;;;;;2.13;1.70;;;24.90;95.70;;;;;;5032154;28;20231;-85
2023/09/06 03:25:54;;;;;;;1.90;1.70;;;24.90;95.70;;;;;;5031635;28;20283;-84
2023/09/06 03:28:21;;;;;;;1.97;1.80;;;24.90;95.70;;;;;;5038900;28;20195;-84
2023/09/06 03:30:50;;;;;;;2.07;1.87;;;24.80;95.70;;;;;;5032050;28;20193;-84
2023/09/06 03:33:18;;;;;;;2.10;1.70;;;24.80;95.60;;;;;;5033341;28;20226;-84
2023/09/06 03:35:48;;;;;;;2.33;2.10;;;24.80;95.60;;;;;;5031360;28;20181;-84
2023/09/06 03:38:15;;;;;;;2.17;1.87;;;24.80;95.70;;;;;;5030955;28;20176;-84
2023/09/06 03:40:42;;;;;;;2.90;2.00;;;24.80;95.60;;;;;;5031800;28;20176;-84
2023/09/06 03:43:19;;;;;;;2.83;1.90;;;24.70;95.70;;;;;;5029606;28;20197;-84
2023/09/06 03:45:58;;;;;;;3.30;2.10;;;24.70;95.70;;;;;;5028529;28;20589;-84
2023/09/06 03:48:26;;;;;;;2.07;1.80;;;24.70;95.70;;;;;;5030802;28;20357;-84
2023/09/06 03:50:57;;;;;;;3.17;1.90;;;24.70;95.70;;;;;;5031063;28;20168;-84
2023/09/06 03:53:27;;;;;;;2.83;1.80;;;24.70;95.60;;;;;;5030443;28;20247;-84
2023/09/06 03:56:00;;;;;;;2.63;1.90;;;24.60;95.70;;;;;;5030565;28;20189;-84
2023/09/06 03:58:29;;;;;;;2.20;2.00;;;24.60;95.70;;;;;;5031001;28;20230;-84
2023/09/06 04:00:54;;;;;;;2.00;1.80;;;24.60;95.70;;;;;;5031873;28;20177;-84
2023/09/06 04:03:22;;;;;;;3.70;2.10;;;24.60;95.70;;;;;;5030196;28;20266;-84
2023/09/06 04:05:50;;;;;;;2.27;1.93;;;24.60;95.70;;;;;;5032287;28;20173;-85
2023/09/06 04:08:17;;;;;;;2.20;2.00;;;24.60;95.70;;;;;;5033951;28;20181;-85
2023/09/06 04:10:44;;;;;;;3.37;2.00;;;24.60;95.70;;;;;;5032365;28;20264;-85
2023/09/06 04:13:11;;;;;;;2.33;2.00;;;24.60;95.70;;;;;;5033482;28;20177;-85
2023/09/06 04:15:38;;;;;;;2.07;1.87;;;24.60;95.70;;;;;;5035600;28;20251;-84
2023/09/06 04:18:06;;;;;;;2.43;2.10;;;24.50;95.80;;;;;;5034642;28;20208;-84
2023/09/06 04:20:35;;;;;;;2.10;1.90;;;24.50;95.70;;;;;;5033707;28;20252;-84
2023/09/06 04:23:08;;;;;;;2.00;1.80;;;24.50;95.70;;;;;;5034165;28;20240;-84
2023/09/06 04:25:41;;;;;;;2.87;2.10;;;24.50;95.70;;;;;;5031245;28;20689;-85
2023/09/06 04:28:08;;;;;;;1.93;1.73;;;24.50;95.70;;;;;;5032781;28;20271;-85
2023/09/06 04:30:36;;;;;;;2.77;2.27;;;24.50;95.70;;;;;;5033366;28;20220;-85
2023/09/06 04:33:07;;;;;;;2.63;2.20;;;24.50;95.70;;;;;;5034494;28;20185;-85
2023/09/06 04:35:42;;;;;;;2.23;1.93;;;24.40;95.70;;;;;;5033297;28;20578;-85
2023/09/06 04:38:15;;;;;;;2.73;1.97;;;24.40;95.70;;;;;;5031970;28;20187;-85
2023/09/06 04:40:45;;;;;;;3.70;2.30;;;24.40;95.70;;;;;;5033832;28;20551;-85
2023/09/06 04:43:12;;;;;;;2.17;1.97;;;24.40;95.70;;;;;;5032607;28;20538;-84
2023/09/06 04:45:38;;;;;;;2.30;1.80;;;24.50;95.70;;;;;;5034194;28;20188;-85
2023/09/06 04:48:16;;;;;;;2.50;2.10;;;24.40;95.70;;;;;;5032061;28;20181;-85
2023/09/06 04:50:46;;;;;;;3.93;1.83;;;24.40;95.70;;;;;;5032297;28;20211;-85
2023/09/06 04:53:21;;;;;;;2.27;2.03;;;24.40;95.70;;;;;;5032293;28;20173;-85
2023/09/06 04:55:52;;;;;;;2.97;2.17;;;24.40;95.80;;;;;;5030308;28;20435;-85
2023/09/06 04:58:27;;;;;;;2.03;1.77;;;24.40;95.70;;;;;;5033339;28;20169;-85
2023/09/06 05:01:02;;;;;;;2.50;1.80;;;24.40;95.80;;;;;;5033265;28;20262;-87
2023/09/06 05:03:32;;;;;;;2.33;2.07;;;24.40;95.70;;;;;;5031038;28;20593;-86
2023/09/06 05:05:57;;;;;;;3.63;2.10;;;24.40;95.70;;;;;;5036464;28;20374;-87
2023/09/06 05:08:32;;;;;;;3.53;2.13;;;24.40;95.70;;;;;;5033507;28;20291;-86
2023/09/06 05:11:06;;;;;;;3.17;2.20;;;24.40;95.80;;;;;;5029241;28;20516;-87
2023/09/06 05:13:31;;;;;;;4.00;2.20;;;24.40;95.70;;;;;;5030588;28;20265;-87
2023/09/06 05:16:01;;;;;;;3.43;2.17;;;24.40;95.70;;;;;;5027780;28;20499;-86
2023/09/06 05:18:30;;;;;;;2.70;2.20;;;24.40;95.80;;;;;;5023441;28;20165;-87
2023/09/06 05:20:56;;;;;;;5.00;2.27;;;24.40;95.70;;;;;;5025312;28;20177;-87
2023/09/06 05:23:21;;;;;;;2.30;2.10;;;24.40;95.70;;;;;;5024285;28;20544;-86
2023/09/06 05:25:47;;;;;;;3.77;2.30;;;24.40;95.70;;;;;;5027302;28;20185;-86
2023/09/06 05:28:15;;;;;;;3.30;2.50;;;24.40;95.70;;;;;;5027871;28;20177;-86
2023/09/06 05:30:45;;;;;;;3.10;2.50;;;24.40;95.70;;;;;;5025047;28;20185;-86
2023/09/06 05:33:15;;;;;;;3.90;2.70;;;24.40;95.70;;;;;;5025200;28;20280;-87
2023/09/06 05:35:44;;;;;;;4.30;2.60;;;24.40;95.60;;;;;;5025894;28;20200;-87
2023/09/06 05:38:10;;;;;;;4.00;2.20;;;24.40;95.60;;;;;;5025022;28;20425;-87
2023/09/06 05:40:35;;;;;;;4.63;2.53;;;24.40;95.50;;;;;;5023084;28;20188;-87
2023/09/06 05:43:01;;;;;;;3.00;2.50;;;24.40;95.50;;;;;;5023774;28;20475;-86
2023/09/06 05:45:27;;;;;;;4.10;2.80;;;24.40;95.50;;;;;;5024315;28;20173;-87
2023/09/06 05:47:56;;;;;;;4.23;2.83;;;24.40;95.30;;;;;;5025091;28;20415;-87
2023/09/06 05:50:22;;;;;;;6.30;2.60;;;24.50;94.90;;;;;;5025853;28;20169;-87
2023/09/06 05:52:47;;;;;;;3.10;2.43;;;24.50;95.00;;;;;;5024957;28;20177;-87
2023/09/06 05:55:17;;;;;;;3.67;2.80;;;24.30;95.20;;;;;;5024099;28;20258;-87
2023/09/06 05:57:46;;;;;;;3.67;2.73;;;24.20;95.50;;;;;;5023996;28;20177;-87
2023/09/06 06:00:15;;;;;;;3.33;2.73;;;24.20;95.60;;;;;;5022210;28;20173;-87
2023/09/06 06:02:41;;;;;;;3.80;3.27;;;24.20;95.70;;;;;;5023388;28;20220;-87
2023/09/06 06:05:09;;;;;;;3.93;2.97;;;24.20;95.60;;;;;;5022719;28;20570;-87
2023/09/06 06:07:34;;;;;;;3.33;2.80;;;24.20;95.60;;;;;;5022708;28;20260;-87
2023/09/06 06:10:00;;;;;;;4.07;2.90;;;24.20;95.50;;;;;;5023120;28;20183;-86
2023/09/06 06:12:25;;;;;;;4.63;3.53;;;24.30;95.40;;;;;;5025550;28;20177;-87
2023/09/06 06:14:57;;;;;;;3.40;3.10;;;24.30;95.30;;;;;;5024138;28;20206;-87
2023/09/06 06:17:22;;;;;;;4.93;3.40;;;24.40;95.30;;;;;;5023653;28;20169;-87
2023/09/06 06:19:49;;;;;;;4.63;3.40;;;24.40;95.10;;;;;;5025079;28;20177;-87
2023/09/06 06:22:17;;;;;;;3.73;3.20;;;24.40;95.00;;;;;;5024532;28;20689;-87
2023/09/06 06:24:46;;;;;;;5.47;3.17;;;24.40;94.90;;;;;;5022350;28;20205;-87
2023/09/06 06:27:12;;;;;;;3.87;3.20;;;24.50;94.90;;;;;;5020641;28;20169;-87
2023/09/06 06:29:38;;;;;;;4.50;3.40;;;24.50;94.80;;;;;;5021866;28;20288;-87
2023/09/06 06:32:04;;;;;;;4.40;3.60;;;24.50;94.70;;;;;;5026179;28;20288;-87
2023/09/06 06:34:30;;;;;;;5.63;3.23;;;24.60;94.60;;;;;;5027344;28;20344;-87
2023/09/06 06:36:56;;;;;;;4.73;3.53;;;24.70;94.50;;;;;;5025986;28;20466;-87
2023/09/06 06:39:21;;;;;;;4.47;3.30;;;24.80;94.10;;;;;;5023058;28;20180;-87
2023/09/06 06:41:47;;;;;;;6.07;3.50;;;24.90;94.00;;;;;;5022691;28;20340;-87
2023/09/06 06:44:13;;;;;;;5.10;3.57;;;24.90;93.80;;;;;;5023378;28;20264;-87
2023/09/06 06:46:39;;;;;;;4.97;3.40;;;24.90;93.80;;;;;;5021392;28;20578;-86
2023/09/06 06:49:08;;;;;;;4.67;3.10;;;25.00;93.90;;;;;;5020202;28;20177;-87
2023/09/06 06:51:38;;;;;;;4.87;3.47;;;25.10;93.90;;;;;;5018364;28;20337;-87
2023/09/06 06:54:14;;;;;;;4.77;3.77;;;25.20;93.80;;;;;;5019017;28;20525;-86
2023/09/06 06:56:40;;;;;;;4.83;3.63;;;25.20;93.70;;;;;;5019589;28;20216;-87
2023/09/06 06:59:09;;;;;;;4.80;3.73;;;25.30;93.60;;;;;;5019583;28;20177;-87
2023/09/06 07:01:35;;;;;;;4.90;3.40;;;25.40;93.50;;;;;;5021665;28;20499;-86
2023/09/06 07:04:04;;;;;;;3.90;3.07;;;25.40;93.40;;;;;;5021400;28;20550;-86
2023/09/06 07:06:30;;;;;;;5.03;3.20;;;25.50;93.20;;;;;;5020927;28;20181;-86
2023/09/06 07:09:03;;;;;;;5.40;3.73;;;25.60;93.10;;;;;;5020853;28;20177;-86
2023/09/06 07:11:29;;;;;;;4.70;3.50;;;25.60;92.90;;;;;;5019939;28;20417;-87
2023/09/06 07:13:54;;;;;;;4.87;3.23;;;25.70;92.70;;;;;;5020316;28;20370;-87
2023/09/06 07:16:23;;;;;;;4.87;3.40;;;25.80;92.40;;;;;;5019758;28;20662;-86
2023/09/06 07:18:52;;;;;;;5.17;3.33;;;25.90;92.20;;;;;;5020470;28;20177;-86
2023/09/06 07:21:21;;;;;;;4.53;3.57;;;26.10;91.90;;;;;;5023263;28;20238;-86
2023/09/06 07:23:49;;;;;;;4.28;3.25;;;26.20;91.50;;;;;;5024889;28;20235;-86
2023/09/06 07:26:18;;;;;;;4.40;3.53;;;26.40;91.10;;;;;;5025497;28;20325;-86
2023/09/06 07:28:45;;;;;;;4.90;3.72;;;26.60;90.60;;;;;;5022795;28;20177;-86
2023/09/06 07:31:12;;;;;;;7.88;3.80;;;26.80;89.90;;;;;;5025315;28;20192;-86
2023/09/06 07:33:40;;;;;;;5.32;3.58;;;27.10;88.20;;;;;;5024559;28;20173;-86
2023/09/06 07:36:06;;;;;;;6.05;3.60;;;27.40;85.80;;;;;;5023666;28;20230;-86
2023/09/06 07:38:33;;;;;;;4.55;3.50;;;27.70;83.50;;;;;;5025282;28;20778;-86
2023/09/06 07:41:06;;;;;;;3.78;3.28;;;28.00;81.70;;;;;;5029836;28;20454;-86
2023/09/06 07:43:35;;;;;;;3.97;3.42;;;28.20;80.70;;;;;;5027887;28;20200;-86
2023/09/06 07:46:02;;;;;;;4.13;3.58;;;28.40;78.90;;;;;;5027923;28;20188;-86
2023/09/06 07:48:29;;;;;;;4.68;3.60;;;28.50;77.70;;;;;;5028086;28;20208;-86
2023/09/06 07:50:59;;;;;;;4.30;3.38;;;28.70;76.50;;;;;;5030164;28;20365;-86
2023/09/06 07:53:28;;;;;;;4.10;3.25;;;28.80;76.00;;;;;;5027560;28;20259;-86
2023/09/06 07:55:53;;;;;;;4.00;3.60;;;28.90;74.90;;;;;;5027403;28;20205;-86
2023/09/06 07:58:22;;;;;;;4.07;3.50;;;29.00;73.90;;;;;;5026196;28;20271;-86
2023/09/06 08:00:51;;;;;;;4.10;3.42;;;29.20;73.40;;;;;;5024569;28;20169;-86
2023/09/06 08:03:17;;;;;;;5.45;3.60;;;29.30;72.40;;;;;;5023918;28;20234;-86
2023/09/06 08:05:46;;;;;;;4.22;3.25;;;29.40;71.70;;;;;;5046306;28;20550;-86
2023/09/06 08:08:12;;;;;;;4.95;3.33;;;29.50;70.90;;;;;;5034060;28;20215;-86
2023/09/06 08:10:39;;;;;;;5.00;3.30;;;29.60;70.50;;;;;;5027226;28;20582;-86
2023/09/06 08:13:08;;;;;;;4.68;3.63;;;29.70;70.10;;;;;;5028337;28;20184;-86
2023/09/06 08:15:35;;;;;;;3.95;3.55;;;29.80;69.90;;;;;;5031467;28;20180;-86
2023/09/06 08:18:03;;;;;;;3.83;3.45;;;29.80;69.80;;;;;;5025033;28;20165;-86
2023/09/06 08:20:32;;;;;;;4.22;3.60;;;29.80;69.40;;;;;;5027169;28;20267;-87
2023/09/06 08:23:00;;;;;;;3.90;3.50;;;30.00;68.90;;;;;;5026708;28;20200;-87
2023/09/06 08:25:29;;;;;;;3.75;3.28;;;30.00;68.50;;;;;;5029098;28;20235;-87
2023/09/06 08:27:57;;;;;;;4.10;3.70;;;30.10;68.30;;;;;;5029757;28;20309;-87
2023/09/06 08:30:26;;;;;;;4.15;3.40;;;30.20;67.90;;;;;;5026800;28;20177;-86
2023/09/06 08:32:52;;;;;;;5.13;3.90;;;30.20;67.40;;;;;;5029795;28;20609;-86
2023/09/06 08:35:23;;;;;;;5.18;3.30;;;30.30;67.10;;;;;;5028599;28;20169;-86
2023/09/06 08:37:51;;;;;;;3.80;3.30;;;30.40;66.60;;;;;;5026096;28;20172;-87
2023/09/06 08:40:18;;;;;;;4.68;3.53;;;30.50;66.10;;;;;;5027183;28;20458;-87
2023/09/06 08:42:48;;;;;;;3.80;3.38;;;30.70;65.50;;;;;;5024150;28;20400;-87
2023/09/06 08:45:23;;;;;;;3.75;3.33;;;30.80;65.20;;;;;;5026000;28;20169;-87
2023/09/06 08:47:50;;;;;;;4.43;3.53;;;30.90;64.60;;;;;;5026835;28;20184;-87
2023/09/06 08:50:16;;;;;;;4.57;3.20;;;30.90;64.50;;;;;;5025874;28;20262;-87
2023/09/06 08:52:45;;;;;;;4.00;3.60;;;31.00;64.10;;;;;;5023652;28;20208;-86
2023/09/06 08:55:14;;;;;;;3.70;3.10;;;31.00;63.90;;;;;;5023249;28;20627;-86
2023/09/06 08:57:44;;;;;;;3.53;2.97;;;31.10;63.80;;;;;;5025691;28;20577;-87
2023/09/06 09:00:13;;;;;;;4.05;3.40;;;31.10;63.50;;;;;;5023320;28;20219;-86
2023/09/06 09:02:43;;;;;;;3.55;3.08;;;31.10;63.30;;;;;;5023952;28;20273;-87
2023/09/06 09:05:15;;;;;;;3.55;3.00;;;31.40;62.90;;;;;;5023440;28;20382;-87
2023/09/06 09:07:41;;;;;;;3.90;3.50;;;31.30;62.70;;;;;;5025764;28;20172;-87
2023/09/06 09:10:09;;;;;;;3.38;3.08;;;31.30;62.90;;;;;;5025497;28;20162;-87
2023/09/06 09:12:38;;;;;;;3.70;3.25;;;31.40;62.50;;;;;;5024439;28;20180;-87
2023/09/06 09:15:10;;;;;;;3.97;3.58;;;31.40;62.60;;;;;;5027526;28;20206;-86
2023/09/06 09:17:40;;;;;;;4.13;3.05;;;31.50;62.20;;;;;;5027110;28;20563;-87
2023/09/06 09:20:07;;;;;;;5.47;3.50;;;31.60;61.90;;;;;;5025773;28;20173;-87
2023/09/06 09:22:35;;;;;;;3.80;3.20;;;31.60;61.80;;;;;;5025116;28;20528;-86
2023/09/06 09:25:14;;;;;;;3.60;3.30;;;31.70;61.50;;;;;;5022573;28;20173;-87
2023/09/06 09:27:42;;;;;;;3.80;3.42;;;31.70;61.30;;;;;;5025911;28;20596;-86
2023/09/06 09:30:09;;;;;;;3.58;3.22;;;31.90;60.60;;;;;;5024730;28;20238;-86
2023/09/06 09:32:39;;;;;;;3.55;3.25;;;32.00;60.10;;;;;;5022325;28;20180;-86
2023/09/06 09:35:09;;;;;;;3.50;3.20;;;32.20;60.10;;;;;;5023156;28;20204;-86
2023/09/06 09:37:35;;;;;;;3.58;3.22;;;32.20;59.80;;;;;;5022255;28;20217;-85
2023/09/06 09:40:20;;;;;;;3.67;3.30;;;32.30;59.60;;;;;;5022240;28;20353;-86
2023/09/06 09:42:56;;;;;;;3.95;3.25;;;32.10;59.50;;;;;;5023073;28;20513;-86
2023/09/06 09:45:26;;;;;;;3.47;2.97;;;32.20;59.40;;;;;;5024364;28;20449;-86
2023/09/06 09:47:52;;;;;;;3.70;3.13;;;32.30;59.40;;;;;;5023918;28;20166;-87
2023/09/06 09:50:24;;;;;;;3.30;3.00;;;32.30;59.30;;;;;;5024099;28;20308;-86
2023/09/06 09:52:53;;;;;;;3.58;3.20;;;32.20;59.50;;;;;;5024025;28;20264;-86
2023/09/06 09:55:31;;;;;;;3.58;3.00;;;32.20;59.40;;;;;;5025145;28;20179;-86
2023/09/06 09:58:05;;;;;;;3.45;3.13;;;32.20;59.40;;;;;;5025381;28;20440;-86
2023/09/06 10:00:32;;;;;;;3.28;2.97;;;31.90;59.80;;;;;;5024328;28;20173;-86
2023/09/06 10:03:04;;;;;;;3.47;3.17;;;31.60;60.40;;;;;;5025211;28;20295;-86
2023/09/06 10:05:31;;;;;;;3.50;3.20;;;31.30;61.00;;;;;;5026519;28;20165;-86
2023/09/06 10:07:57;;;;;;;5.65;3.20;;;31.00;62.20;;;;;;5025892;28;20260;-86
2023/09/06 10:10:26;;;;;;;3.35;3.05;;;30.80;63.00;;;;;;5025575;28;20332;-86
2023/09/06 10:12:55;;;;;;;3.72;3.35;;;30.60;64.00;;;;;;5027625;28;20311;-86
2023/09/06 10:15:23;;;;;;;3.42;3.13;;;30.40;65.00;;;;;;5026550;28;20180;-86
2023/09/06 10:17:55;;;;;;;3.20;2.90;;;30.20;65.80;;;;;;5024466;28;20531;-86
2023/09/06 10:20:32;;;;;;;3.47;3.17;;;30.10;66.80;;;;;;5057095;28;20168;-86
2023/09/06 10:22:59;;;;;;;3.60;3.03;;;29.80;68.60;;;;;;5027045;28;20440;-86
2023/09/06 10:25:26;;;;;;;3.30;3.00;;;29.70;68.90;;;;;;5025015;28;20169;-86
2023/09/06 10:27:54;;;;;;;2.85;2.65;;;29.70;69.20;;;;;;5025105;28;20176;-86
2023/09/06 10:30:47;;;;;;;3.45;2.85;;;29.70;69.40;;;;;;5024089;28;20216;-86
2023/09/06 10:33:47;;;;;;;3.08;2.80;;;29.70;69.80;;;;;;5027492;28;20628;-86
2023/09/06 10:36:13;;;;;;;3.17;2.88;;;29.70;70.30;;;;;;5019603;28;20551;-86
2023/09/06 10:38:52;;;;;;;3.50;2.92;;;29.60;70.70;;;;;;5028004;28;20177;-86
2023/09/06 10:41:21;;;;;;;2.97;2.78;;;29.70;70.90;;;;;;5024619;28;20196;-86
2023/09/06 10:44:11;;;;;;;3.33;3.03;;;29.60;71.50;;;;;;5023482;28;20212;-86
2023/09/06 10:46:38;;;;;;;3.50;3.03;;;29.70;71.20;;;;;;5024536;28;20176;-86
2023/09/06 10:49:17;;;;;;;3.38;2.95;;;29.80;71.00;;;;;;5025798;28;20196;-86
2023/09/06 10:52:01;;;;;;;2.95;2.65;;;29.80;71.10;;;;;;5022175;28;20185;-86
2023/09/06 10:54:36;;;;;;;3.50;2.80;;;29.80;71.10;;;;;;5026312;28;20233;-86
2023/09/06 10:57:23;;;;;;;3.40;3.10;;;29.80;71.50;;;;;;5005977;28;20177;-86
2023/09/06 10:59:58;;;;;;;3.60;2.60;;;29.70;71.70;;;;;;5025753;28;20173;-86
2023/09/06 11:02:27;;;;;;;3.03;2.72;;;29.60;72.40;;;;;;5034600;28;20248;-86
2023/09/06 11:05:08;;;;;;;2.90;2.70;;;29.50;73.10;;;;;;5026566;28;20205;-86
2023/09/06 11:07:44;;;;;;;3.00;2.70;;;29.40;74.10;;;;;;5023004;28;20689;-85
2023/09/06 11:10:11;;;;;;;2.88;2.67;;;29.40;73.90;;;;;;5021863;28;20204;-86
2023/09/06 11:12:38;;;;;;;3.33;2.55;;;29.40;74.10;;;;;;5023388;28;20172;-86
2023/09/06 11:15:07;;;;;;;2.97;2.67;;;29.40;74.30;;;;;;5023074;28;20195;-86
2023/09/06 11:17:43;;;;;;;3.17;2.88;;;29.40;74.70;;;;;;5021674;28;20280;-86
2023/09/06 11:20:14;;;;;;;2.97;2.70;;;29.30;74.80;;;;;;5024369;28;20299;-85
2023/09/06 11:22:53;;;;;;;2.80;2.60;;;29.30;75.20;;;;;;5020408;28;20196;-85
2023/09/06 11:25:24;;;;;;;3.08;2.60;;;29.30;75.60;;;;;;5023280;28;20412;-85
2023/09/06 11:27:51;;;;;;;2.90;2.70;;;29.20;76.00;;;;;;5023268;28;20544;-86
2023/09/06 11:30:23;;;;;;;2.95;2.65;;;29.10;76.50;;;;;;5021784;28;20283;-86
2023/09/06 11:32:58;;;;;;;2.58;2.38;;;29.10;76.90;;;;;;5019688;28;20188;-85
2023/09/06 11:35:33;;;;;;;2.67;2.47;;;29.10;77.20;;;;;;5019009;28;20262;-85
2023/09/06 11:38:00;;;;;;;2.80;2.50;;;29.10;77.60;;;;;;5025837;28;20238;-86
2023/09/06 11:40:28;;;;;;;2.75;2.55;;;29.00;78.00;;;;;;5019559;28;20534;-86
2023/09/06 11:43:04;;;;;;;2.92;2.67;;;29.00;78.20;;;;;;5027047;28;20202;-86
2023/09/06 11:45:32;;;;;;;2.67;2.47;;;29.00;78.30;;;;;;5036357;28;20691;-86
2023/09/06 11:48:04;;;;;;;3.40;2.65;;;29.00;78.60;;;;;;5017866;28;20366;-86
2023/09/06 11:50:31;;;;;;;3.08;2.75;;;29.00;78.70;;;;;;5022799;28;20191;-86
2023/09/06 11:53:17;;;;;;;2.85;2.58;;;29.00;78.90;;;;;;5017471;28;20554;-86
2023/09/06 11:55:49;;;;;;;3.30;2.78;;;29.00;79.10;;;;;;5021816;28;20375;-86
2023/09/06 11:58:20;;;;;;;2.78;2.58;;;29.00;79.50;;;;;;5032006;28;20169;-85
2023/09/06 12:00:50;;;;;;;2.97;2.40;;;28.90;80.20;;;;;;5021853;28;20169;-85
2023/09/06 12:03:16;;;;;;;2.60;2.33;;;28.90;79.90;;;;;;5023298;28;20192;-85
2023/09/06 12:05:50;;;;;;;3.00;2.70;;;28.90;79.90;;;;;;5019011;28;20173;-85
2023/09/06 12:08:21;;;;;;;2.92;2.50;;;28.90;80.30;;;;;;5022903;28;20192;-85
2023/09/06 12:11:05;;;;;;;2.67;2.47;;;28.80;80.50;;;;;;5023587;28;20262;-85
2023/09/06 12:13:34;;;;;;;2.45;2.25;;;28.80;80.90;;;;;;5022767;28;20192;-85
2023/09/06 12:16:02;;;;;;;3.40;2.45;;;28.80;81.10;;;;;;5020734;28;20589;-84
2023/09/06 12:18:31;;;;;;;2.65;2.45;;;28.80;81.50;;;;;;5020964;28;20181;-85
2023/09/06 12:20:58;;;;;;;2.63;2.42;;;28.80;81.80;;;;;;5022502;28;20666;-85
2023/09/06 12:23:28;;;;;;;2.55;2.35;;;28.70;82.10;;;;;;5021688;28;20495;-84
2023/09/06 12:25:58;;;;;;;2.83;2.40;;;28.70;82.30;;;;;;5020440;28;20165;-84
2023/09/06 12:28:24;;;;;;;2.50;2.30;;;28.70;82.50;;;;;;5024821;28;20258;-84
2023/09/06 12:30:55;;;;;;;2.75;2.47;;;28.70;82.60;;;;;;5026294;28;20559;-84
2023/09/06 12:33:23;;;;;;;2.88;2.55;;;28.70;82.70;;;;;;5026723;28;20272;-84
2023/09/06 12:35:58;;;;;;;2.80;2.60;;;28.70;83.00;;;;;;5024477;28;20236;-84
2023/09/06 12:38:25;;;;;;;2.40;2.20;;;28.70;83.00;;;;;;5024972;28;20271;-84
2023/09/06 12:40:50;;;;;;;2.42;2.22;;;28.70;83.00;;;;;;5023840;28;20479;-84
2023/09/06 12:43:16;;;;;;;2.55;2.35;;;28.70;83.00;;;;;;5023123;28;20327;-84
2023/09/06 12:45:47;;;;;;;2.53;2.33;;;28.70;83.30;;;;;;5022029;28;20468;-84
2023/09/06 12:48:13;;;;;;;2.83;2.58;;;28.70;83.30;;;;;;5022987;28;20173;-84
2023/09/06 12:50:39;;;;;;;2.40;2.20;;;28.70;83.60;;;;;;5025149;28;20165;-84
2023/09/06 12:53:07;;;;;;;2.50;2.30;;;28.70;83.20;;;;;;5023950;28;20184;-84
2023/09/06 12:55:34;;;;;;;2.42;2.22;;;28.70;83.40;;;;;;5023215;28;20259;-84
2023/09/06 12:58:00;;;;;;;2.35;2.15;;;28.70;83.20;;;;;;5024998;28;20458;-84
2023/09/06 13:00:26;;;;;;;2.72;2.53;;;28.70;83.10;;;;;;5025945;28;20172;-84